Time;durP1;ratioP1;P1;durP2;ratioP2;P2;SDS_P1;SDS_P2;PMS_P1;PMS_P2;Temp;Humidity;BMP_temperature;BMP_pressure;BME280_temperature;BME280_humidity;BME280_pressure;Samples;Min_cycle;Max_cycle;Signal;HPM_P1;HPM_P2
2022/10/07 00:02:13;;;;;;;7.03;5.73;;;;;;;-142.65;86.36;50178.75;5096438;28;20197;-67
2022/10/07 00:04:44;;;;;;;6.67;6.07;;;;;;;-142.65;86.49;50182.72;5096188;28;20178;-67
2022/10/07 00:07:13;;;;;;;7.30;5.27;;;;;;;-142.65;86.48;50178.75;5096428;28;20193;-67
2022/10/07 00:09:40;;;;;;;5.87;5.47;;;;;;;-142.65;86.52;50172.78;5095997;28;20218;-67
2022/10/07 00:12:06;;;;;;;10.87;6.23;;;;;;;-142.65;86.53;50180.75;5095996;28;20202;-67
2022/10/07 00:14:33;;;;;;;8.03;6.53;;;;;;;-142.65;86.52;50174.75;5096019;28;20186;-67
2022/10/07 00:17:00;;;;;;;6.43;5.23;;;;;;;-142.65;86.68;50176.75;5096486;28;20197;-67
2022/10/07 00:19:26;;;;;;;5.27;4.83;;;;;;;-142.65;86.74;50180.75;5096382;28;20771;-67
2022/10/07 00:21:53;;;;;;;7.00;5.57;;;;;;;-142.65;86.87;50174.75;5095890;28;20197;-67
2022/10/07 00:24:19;;;;;;;6.23;5.83;;;;;;;-142.65;87.06;50180.75;5095849;28;20173;-67
2022/10/07 00:26:46;;;;;;;5.43;5.10;;;;;;;-142.65;87.13;50174.75;5096288;28;20194;-67
2022/10/07 00:29:12;;;;;;;8.53;5.80;;;;;;;-142.65;87.25;50178.75;5095835;28;20556;-67
2022/10/07 00:31:40;;;;;;;7.07;6.57;;;;;;;-142.65;87.25;50178.75;5096487;28;20627;-67
2022/10/07 00:34:07;;;;;;;5.47;5.00;;;;;;;-142.65;87.28;50174.75;5095672;28;20201;-67
2022/10/07 00:36:36;;;;;;;5.83;5.53;;;;;;;-142.65;87.25;50172.78;5094391;28;20191;-67
2022/10/07 00:39:06;;;;;;;13.53;4.90;;;;;;;-142.65;87.39;50178.75;5095725;28;20572;-67
2022/10/07 00:41:42;;;;;;;9.30;5.53;;;;;;;-142.65;87.39;50178.75;5095795;28;20178;-67
2022/10/07 00:44:30;;;;;;;6.57;5.17;;;;;;;-142.65;87.38;50176.75;5096087;28;20169;-67
2022/10/07 00:47:03;;;;;;;8.60;4.83;;;;;;;-142.65;87.31;50180.75;5095690;28;20262;-67
2022/10/07 00:49:40;;;;;;;16.70;5.90;;;;;;;-142.65;87.39;50174.75;5095525;28;20216;-67
2022/10/07 00:52:06;;;;;;;5.17;4.77;;;;;;;-142.65;87.59;50178.75;5095326;28;20645;-67
2022/10/07 00:54:35;;;;;;;8.03;5.67;;;;;;;-142.65;87.59;50182.72;5095453;28;20199;-67
2022/10/07 00:57:02;;;;;;;5.13;4.90;;;;;;;-142.65;87.66;50178.75;5095699;28;20184;-67
2022/10/07 00:59:28;;;;;;;8.63;4.90;;;;;;;-142.65;87.70;50178.75;5076932;28;20215;-67
2022/10/07 01:01:54;;;;;;;7.93;4.80;;;;;;;-142.65;87.69;50174.75;5095580;28;20543;-67
2022/10/07 01:04:21;;;;;;;11.40;5.90;;;;;;;-142.65;87.80;50178.75;5095280;28;20208;-67
2022/10/07 01:06:47;;;;;;;10.03;6.10;;;;;;;-142.65;88.02;50182.72;5094938;28;20188;-67
2022/10/07 01:09:14;;;;;;;5.57;5.07;;;;;;;-142.65;87.92;50182.72;5094834;28;20227;-67
2022/10/07 01:11:58;;;;;;;5.13;4.90;;;;;;;-142.65;87.77;50170.78;5076755;28;20192;-67
2022/10/07 01:14:33;;;;;;;7.13;5.23;;;;;;;-142.65;87.85;50178.75;5076744;28;20193;-67
2022/10/07 01:17:06;;;;;;;5.57;5.23;;;;;;;-142.65;87.74;50184.72;5095097;28;20184;-67
2022/10/07 01:19:51;;;;;;;5.60;4.83;;;;;;;-142.65;87.68;50176.75;5076576;28;20575;-67
2022/10/07 01:22:37;;;;;;;4.73;4.43;;;;;;;-142.65;87.65;50172.78;5076749;28;20183;-67
2022/10/07 01:25:27;;;;;;;10.63;4.57;;;;;;;-142.65;87.91;50180.75;5095187;28;20170;-67
2022/10/07 01:28:02;;;;;;;5.60;5.10;;;;;;;-142.65;87.75;50176.75;5094572;28;20192;-67
2022/10/07 01:30:32;;;;;;;4.93;4.63;;;;;;;-142.65;87.85;50176.75;5076285;28;20219;-67
2022/10/07 01:33:03;;;;;;;5.97;5.50;;;;;;;-142.65;87.94;50174.75;5076339;28;20560;-67
2022/10/07 01:35:34;;;;;;;8.87;5.23;;;;;;;-142.65;87.85;50178.75;5076290;28;20205;-67
2022/10/07 01:38:05;;;;;;;5.93;5.53;;;;;;;-142.65;87.78;50182.72;5094437;28;20184;-67
2022/10/07 01:40:44;;;;;;;4.67;4.57;;;;;;;-142.65;88.08;50174.75;5076106;28;20213;-67
2022/10/07 01:43:14;;;;;;;6.17;5.00;;;;;;;-142.65;87.98;50178.75;5094892;28;20257;-67
2022/10/07 01:45:41;;;;;;;4.87;4.50;;;;;;;-142.65;87.93;50168.78;5094572;28;20544;-67
2022/10/07 01:48:08;;;;;;;5.77;4.70;;;;;;;-142.65;87.98;50182.72;5075771;28;20290;-67
2022/10/07 01:50:37;;;;;;;4.93;4.53;;;;;;;-142.65;88.01;50182.72;5076408;28;20305;-67
2022/10/07 01:53:14;;;;;;;12.33;4.90;;;;;;;-142.65;88.01;50180.75;5094672;28;20606;-67
2022/10/07 01:55:49;;;;;;;8.80;5.53;;;;;;;-142.65;88.08;50174.75;5075954;28;20278;-67
2022/10/07 01:58:33;;;;;;;4.53;4.17;;;;;;;-142.65;88.20;50178.75;5075911;28;20188;-67
2022/10/07 02:01:21;;;;;;;6.60;5.00;;;;;;;-142.65;88.20;50170.78;5075816;28;20259;-67
2022/10/07 02:03:50;;;;;;;4.90;4.70;;;;;;;-142.65;87.74;50180.75;5075786;28;20284;-67
2022/10/07 02:06:45;;;;;;;9.77;5.77;;;;;;;-142.65;87.17;50178.75;5075734;28;20197;-67
2022/10/07 02:09:40;;;;;;;6.90;5.07;;;;;;;-142.65;87.47;50180.75;5075558;28;20636;-67
2022/10/07 02:12:16;;;;;;;6.47;5.90;;;;;;;-142.65;87.76;50182.72;5094018;28;20192;-67
2022/10/07 02:15:07;;;;;;;8.13;5.13;;;;;;;-142.65;87.87;50180.75;5094070;28;20184;-67
2022/10/07 02:17:41;;;;;;;5.23;4.73;;;;;;;-142.65;87.83;50182.72;5075653;28;20182;-67
2022/10/07 02:20:12;;;;;;;4.67;4.47;;;;;;;-142.65;88.01;50182.72;5093941;28;20219;-67
2022/10/07 02:22:42;;;;;;;5.33;4.83;;;;;;;-142.65;88.09;50174.75;5075523;28;20680;-67
2022/10/07 02:25:12;;;;;;;5.20;4.80;;;;;;;-142.65;88.16;50178.75;5093843;28;20189;-67
2022/10/07 02:27:41;;;;;;;8.60;5.70;;;;;;;-142.65;88.47;50178.75;5075532;28;20196;-67
2022/10/07 02:30:12;;;;;;;4.93;4.33;;;;;;;-142.65;88.49;50178.75;5075349;28;20254;-67
2022/10/07 02:32:43;;;;;;;9.73;5.63;;;;;;;-142.65;88.51;50174.75;5075400;28;20193;-67
2022/10/07 02:35:17;;;;;;;9.37;6.00;;;;;;;-142.65;88.66;50174.75;5094041;28;20180;-67
2022/10/07 02:37:47;;;;;;;4.80;4.43;;;;;;;-142.65;88.90;50178.75;5075342;28;20188;-67
2022/10/07 02:40:14;;;;;;;5.57;5.17;;;;;;;-142.65;89.01;50180.75;5075571;28;20210;-67
2022/10/07 02:42:55;;;;;;;6.00;5.80;;;;;;;;;;5075216;28;20194;-67
2022/10/07 02:45:30;;;;;;;7.30;5.33;;;;;;;-142.65;88.43;50182.72;5093678;28;20170;-67
2022/10/07 02:48:03;;;;;;;4.53;4.07;;;;;;;-142.65;88.35;50182.72;5075217;28;20207;-67
2022/10/07 02:50:38;;;;;;;5.17;4.90;;;;;;;-142.65;88.49;50172.78;5093466;28;20676;-67
2022/10/07 02:53:06;;;;;;;5.37;4.40;;;;;;;-142.65;88.29;50178.75;5076039;28;20189;-67
2022/10/07 02:55:34;;;;;;;5.10;4.70;;;;;;;-142.65;88.34;50178.75;5093506;28;20231;-67
2022/10/07 02:58:06;;;;;;;4.63;4.33;;;;;;;-142.65;88.56;50178.75;5093214;28;20189;-67
2022/10/07 03:00:38;;;;;;;5.23;4.90;;;;;;;-142.65;88.55;50180.75;5077247;28;20718;-67
2022/10/07 03:03:04;;;;;;;4.67;4.47;;;;;;;-142.65;88.66;50174.75;5097334;28;20264;-67
2022/10/07 03:05:49;;;;;;;5.53;5.23;;;;;;;-142.65;88.82;50178.75;5079228;28;20190;-67
2022/10/07 03:08:16;;;;;;;6.57;4.37;;;;;;;-142.65;88.57;50174.75;5097829;28;20209;-67
2022/10/07 03:10:43;;;;;;;5.10;4.73;;;;;;;-142.65;88.55;50178.75;5078986;28;20221;-67
2022/10/07 03:13:14;;;;;;;4.90;4.73;;;;;;;-142.65;88.65;50170.78;5078933;28;20208;-67
2022/10/07 03:15:44;;;;;;;7.27;5.83;;;;;;;-142.65;88.86;50180.75;5097463;28;20254;-67
2022/10/07 03:18:26;;;;;;;17.43;5.40;;;;;;;-142.65;88.96;50180.75;5079571;28;20185;-67
2022/10/07 03:21:18;;;;;;;9.10;5.63;;;;;;;-142.65;88.67;50174.75;5093845;28;20196;-67
2022/10/07 03:23:51;;;;;;;4.57;4.47;;;;;;;-142.65;88.46;50178.75;5079654;28;20518;-67
2022/10/07 03:26:20;;;;;;;5.87;5.07;;;;;;;-142.65;88.67;50180.75;5079873;28;20189;-67
2022/10/07 03:28:47;;;;;;;8.17;5.20;;;;;;;-142.65;88.70;50180.75;5079041;28;20194;-67
2022/10/07 03:31:14;;;;;;;5.33;4.87;;;;;;;-142.65;88.93;50182.72;5078430;28;20223;-67
2022/10/07 03:33:45;;;;;;;5.37;5.07;;;;;;;-142.65;89.04;50180.75;5078933;28;20190;-67
2022/10/07 03:36:12;;;;;;;5.30;4.80;;;;;;;-142.65;89.15;50174.75;5078813;28;20285;-67
2022/10/07 03:38:41;;;;;;;5.50;5.20;;;;;;;-142.65;89.28;50180.75;5078801;28;20562;-67
2022/10/07 03:41:09;;;;;;;5.17;4.93;;;;;;;-142.65;89.44;50174.75;5078456;28;20209;-67
2022/10/07 03:43:37;;;;;;;5.90;5.63;;;;;;;-142.65;89.48;50182.72;5096635;28;20201;-67
2022/10/07 03:46:04;;;;;;;6.50;6.13;;;;;;;-142.65;89.63;50180.75;5078405;28;20190;-67
2022/10/07 03:48:34;;;;;;;6.93;5.90;;;;;;;-142.65;89.68;50180.75;5078835;28;20194;-67
2022/10/07 03:51:01;;;;;;;6.00;5.60;;;;;;;-142.65;89.70;50180.75;5078163;28;20595;-67
2022/10/07 03:53:29;;;;;;;6.37;5.80;;;;;;;-142.65;89.68;50180.75;5079083;28;20217;-67
2022/10/07 03:55:58;;;;;;;6.37;5.87;;;;;;;-142.65;89.81;50174.75;5096394;28;20178;-67
2022/10/07 03:58:26;;;;;;;8.43;7.13;;;;;;;-142.65;90.03;50174.75;5078169;28;20244;-67
2022/10/07 04:01:06;;;;;;;6.17;5.87;;;;;;;-142.65;89.94;50180.75;5096199;28;20222;-67
2022/10/07 04:03:34;;;;;;;6.37;5.23;;;;;;;-142.65;90.08;50182.72;5078368;28;20221;-67
2022/10/07 04:06:02;;;;;;;5.73;5.47;;;;;;;-142.65;90.01;50182.72;5078081;28;20186;-67
2022/10/07 04:08:32;;;;;;;5.23;4.90;;;;;;;-142.65;90.15;50174.75;5078004;28;20186;-67
2022/10/07 04:11:01;;;;;;;5.67;5.40;;;;;;;-142.65;90.10;50178.75;5077648;28;20630;-67
2022/10/07 04:13:29;;;;;;;6.03;5.63;;;;;;;-142.65;90.22;50178.75;5077813;28;20242;-67
2022/10/07 04:15:56;;;;;;;6.27;5.93;;;;;;;-142.65;90.09;50176.75;5077842;28;20201;-67
2022/10/07 04:18:23;;;;;;;7.27;5.90;;;;;;;-142.65;90.04;50180.75;5077800;28;20189;-67
2022/10/07 04:20:51;;;;;;;5.10;4.80;;;;;;;-142.65;89.95;50178.75;5078389;28;20683;-67
2022/10/07 04:23:18;;;;;;;6.27;5.90;;;;;;;-142.65;90.09;50174.75;5077659;28;20664;-67
2022/10/07 04:25:46;;;;;;;6.63;5.93;;;;;;;-142.65;90.14;50178.75;5078206;28;20196;-67
2022/10/07 04:28:18;;;;;;;6.53;6.03;;;;;;;-142.65;90.22;50178.75;5078239;28;20534;-67
2022/10/07 04:30:50;;;;;;;6.93;6.20;;;;;;;-142.65;90.20;50174.75;5078215;28;20218;-67
2022/10/07 04:33:21;;;;;;;6.27;5.83;;;;;;;-142.65;90.14;50178.75;5077795;28;20231;-67
2022/10/07 04:35:49;;;;;;;6.00;5.67;;;;;;;-142.65;90.14;50178.75;5095589;28;20190;-67
2022/10/07 04:38:17;;;;;;;9.43;7.17;;;;;;;-142.65;90.17;50178.75;5077453;28;20202;-67
2022/10/07 04:40:48;;;;;;;8.33;7.77;;;;;;;-142.65;90.32;50176.75;5077300;28;20304;-67
2022/10/07 04:43:21;;;;;;;7.43;7.10;;;;;;;-142.65;90.33;50182.72;5077461;28;20194;-67
2022/10/07 04:46:00;;;;;;;8.27;5.67;;;;;;;-142.65;90.39;50182.72;5077360;28;20659;-67
2022/10/07 04:48:26;;;;;;;8.23;5.73;;;;;;;-142.65;90.18;50180.75;5096054;28;20224;-67
2022/10/07 04:50:53;;;;;;;5.37;5.13;;;;;;;-142.65;90.16;50178.75;5077474;28;20225;-67
2022/10/07 04:53:21;;;;;;;5.97;5.50;;;;;;;-142.65;90.28;50170.78;5077191;28;20655;-67
2022/10/07 04:55:50;;;;;;;8.33;5.67;;;;;;;-142.65;90.30;50180.75;5077084;28;20202;-67
2022/10/07 04:58:18;;;;;;;4.90;4.63;;;;;;;-142.65;90.31;50178.75;5077098;28;20198;-67
2022/10/07 05:00:48;;;;;;;5.07;4.77;;;;;;;-142.65;90.36;50178.75;5076936;28;20586;-67
2022/10/07 05:03:18;;;;;;;6.57;5.97;;;;;;;-142.65;90.28;50174.75;5076895;28;20235;-67
2022/10/07 05:05:48;;;;;;;8.50;5.73;;;;;;;-142.65;90.21;50182.72;5076707;28;20545;-67
2022/10/07 05:08:17;;;;;;;9.57;6.37;;;;;;;-142.65;90.30;50176.75;5076736;28;20194;-67
2022/10/07 05:10:44;;;;;;;5.93;5.43;;;;;;;-142.65;90.21;50172.78;5076506;28;20296;-67
2022/10/07 05:13:15;;;;;;;6.10;5.70;;;;;;;-142.65;90.28;50178.75;5076284;28;20206;-67
2022/10/07 05:15:57;;;;;;;7.37;6.27;;;;;;;-142.65;90.25;50180.75;5076798;28;20198;-67
2022/10/07 05:18:25;;;;;;;6.87;5.80;;;;;;;-142.65;90.20;50170.78;5095177;28;20177;-67
2022/10/07 05:20:55;;;;;;;6.47;5.97;;;;;;;-142.65;89.99;50178.75;5076455;28;20641;-67
2022/10/07 05:23:24;;;;;;;6.80;6.33;;;;;;;-142.65;90.08;50180.75;5075817;28;20544;-67
2022/10/07 05:26:03;;;;;;;5.40;5.10;;;;;;;-142.65;90.15;50178.75;5077364;28;20178;-67
2022/10/07 05:28:33;;;;;;;11.50;6.17;;;;;;;-142.65;90.15;50180.75;5077337;28;20185;-67
2022/10/07 05:31:05;;;;;;;6.67;6.00;;;;;;;-142.65;90.20;50180.75;5076510;28;20220;-67
2022/10/07 05:33:32;;;;;;;8.00;7.27;;;;;;;-142.65;90.28;50178.75;5077164;28;20287;-67
2022/10/07 05:35:59;;;;;;;6.83;6.20;;;;;;;-142.65;90.35;50180.75;5076216;28;20601;-67
2022/10/07 05:38:27;;;;;;;6.53;6.03;;;;;;;-142.65;90.41;50174.75;5094818;28;20670;-67
2022/10/07 05:40:58;;;;;;;5.70;5.40;;;;;;;-142.65;90.36;50178.75;5076119;28;20237;-67
2022/10/07 05:43:29;;;;;;;6.13;5.60;;;;;;;-142.65;90.36;50178.75;5076403;28;20566;-67
2022/10/07 05:46:02;;;;;;;8.63;6.40;;;;;;;-142.65;90.26;50180.75;5076724;28;20182;-67
2022/10/07 05:48:32;;;;;;;5.93;5.70;;;;;;;-142.65;90.06;50176.75;5076176;28;20267;-67
2022/10/07 05:51:07;;;;;;;11.17;7.13;;;;;;;-142.65;90.14;50174.75;5076014;28;20210;-67
2022/10/07 05:53:33;;;;;;;7.30;6.90;;;;;;;-142.65;90.26;50180.75;5076783;28;20258;-67
2022/10/07 05:56:05;;;;;;;7.63;7.07;;;;;;;-142.65;90.38;50182.72;5075997;28;20595;-67
2022/10/07 05:58:32;;;;;;;6.77;6.37;;;;;;;;;;5075968;28;20194;-67
2022/10/07 06:00:59;;;;;;;10.37;6.80;;;;;;;-142.65;90.30;50182.72;5093997;28;20682;-67
2022/10/07 06:03:33;;;;;;;7.27;6.33;;;;;;;-142.65;90.67;50174.75;5094571;28;20701;-67
2022/10/07 06:05:59;;;;;;;12.10;6.07;;;;;;;-142.65;90.66;50172.78;5075739;28;20671;-67
2022/10/07 06:08:27;;;;;;;9.07;5.97;;;;;;;-142.65;90.80;50180.75;5075982;28;20196;-67
2022/10/07 06:13:50;;;;;;;6.00;5.73;;;;;;;-142.65;90.87;50178.75;5075862;28;20193;-67
2022/10/07 06:16:17;;;;;;;6.60;6.03;;;;;;;-142.65;91.14;50174.75;5076427;28;20276;-67
2022/10/07 06:18:49;;;;;;;14.07;6.83;;;;;;;-142.65;91.33;50178.75;5075588;28;20196;-67
2022/10/07 06:21:22;;;;;;;13.13;6.63;;;;;;;-142.65;91.18;50170.78;5075436;28;20214;-67
2022/10/07 06:23:52;;;;;;;6.83;6.07;;;;;;;-142.65;91.43;50176.75;5075569;28;20276;-67
2022/10/07 06:26:22;;;;;;;8.27;5.83;;;;;;;-142.65;92.00;50182.72;5075520;28;20270;-67
2022/10/07 06:28:49;;;;;;;5.53;5.23;;;;;;;-142.65;92.07;50174.75;5075452;28;20198;-67
2022/10/07 06:31:22;;;;;;;9.23;6.60;;;;;;;-142.65;91.92;50172.78;5075287;28;20267;-67
2022/10/07 06:33:51;;;;;;;11.57;5.70;;;;;;;-142.65;92.05;50182.72;5075879;28;20190;-67
2022/10/07 06:36:17;;;;;;;8.30;6.47;;;;;;;-142.65;92.50;50178.75;5074781;28;20221;-67
2022/10/07 06:38:47;;;;;;;17.53;6.60;;;;;;;-142.65;92.99;50172.78;5075761;28;20608;-67
2022/10/07 06:41:16;;;;;;;13.30;6.93;;;;;;;-142.65;92.83;50170.78;5075152;28;20256;-67
2022/10/07 06:43:43;;;;;;;6.60;6.00;;;;;;;-142.65;92.84;50182.72;5075176;28;20281;-67
2022/10/07 06:46:17;;;;;;;8.37;7.63;;;;;;;-142.65;93.03;50180.75;5074895;28;20190;-67
2022/10/07 06:48:46;;;;;;;13.80;7.83;;;;;;;-142.65;92.97;50184.72;5076037;28;20557;-67
2022/10/07 06:51:17;;;;;;;11.27;6.73;;;;;;;-142.65;92.92;50178.75;5075217;28;20591;-67
2022/10/07 06:53:45;;;;;;;6.93;6.20;;;;;;;-142.65;93.00;50180.75;5076023;28;20194;-67
2022/10/07 06:56:13;;;;;;;6.63;5.90;;;;;;;-142.65;93.04;50178.75;5075188;28;20195;-67
2022/10/07 06:58:42;;;;;;;20.37;6.93;;;;;;;-142.65;92.92;50182.72;5075069;28;20194;-67
2022/10/07 07:01:11;;;;;;;9.70;6.57;;;;;;;-142.65;92.79;50170.78;5075323;28;20216;-67
2022/10/07 07:03:39;;;;;;;10.77;6.93;;;;;;;-142.65;92.32;50172.78;5075083;28;20186;-67
2022/10/07 07:06:07;;;;;;;8.83;5.90;;;;;;;-142.65;92.05;50176.75;5075039;28;20564;-67
2022/10/07 07:08:34;;;;;;;10.80;6.33;;;;;;;-142.65;91.54;50168.78;5075101;28;20525;-67
2022/10/07 07:14:10;;;;;;;15.17;6.00;;;;;;;-142.65;89.74;50172.78;5075347;28;20532;-67
2022/10/07 07:16:39;;;;;;;8.60;7.10;;;;;;;;;;5075323;28;20204;-67
2022/10/07 07:19:07;;;;;;;7.87;6.63;;;;;;;-142.65;88.39;50174.75;5075640;28;20243;-67
2022/10/07 07:21:37;;;;;;;11.80;6.17;;;;;;;-142.65;87.58;50178.75;5093615;28;20533;-67
2022/10/07 07:24:04;;;;;;;5.77;5.23;;;;;;;-142.65;86.32;50178.75;5074895;28;20563;-67
2022/10/07 07:26:32;;;;;;;5.13;4.77;;;;;;;-142.65;86.18;50170.78;5075622;28;20254;-67
2022/10/07 07:29:02;;;;;;;20.10;4.37;;;;;;;-142.65;85.36;50168.78;5074751;28;20242;-67
2022/10/07 07:31:36;;;;;;;11.07;4.57;;;;;;;-142.65;83.72;50172.78;5059246;28;20209;-67
2022/10/07 07:34:10;;;;;;;8.33;4.03;;;;;;;-142.65;83.74;50170.78;5074760;28;20194;-67
2022/10/07 07:36:40;;;;;;;5.60;4.00;;;;;;;-142.65;83.57;50164.81;5074719;28;20241;-67
2022/10/07 07:39:09;;;;;;;20.40;4.30;;;;;;;-142.65;82.86;50170.78;5074843;28;20196;-68
2022/10/07 07:41:40;;;;;;;4.10;3.77;;;;;;;-142.65;82.24;50176.75;5074705;28;20193;-67
2022/10/07 07:44:10;;;;;;;5.63;3.93;;;;;;;-142.65;81.07;50178.75;5074978;28;20617;-67
2022/10/07 07:46:44;;;;;;;8.07;3.90;;;;;;;-142.65;80.81;50170.78;5076965;28;20273;-67
2022/10/07 07:49:12;;;;;;;9.53;4.60;;;;;;;-142.65;80.58;50170.78;5078622;28;20186;-67
2022/10/07 07:51:43;;;;;;;8.97;3.77;;;;;;;;;;5078368;28;20628;-67
2022/10/07 07:54:14;;;;;;;3.70;3.40;;;;;;;;;;5078406;28;20216;-67
2022/10/07 07:56:43;;;;;;;6.83;3.43;;;;;;;-142.65;78.16;50178.75;5078818;28;20559;-67
2022/10/07 07:59:10;;;;;;;5.90;3.03;;;;;;;-142.65;78.36;50176.75;5078113;28;20646;-67
2022/10/07 08:01:37;;;;;;;4.03;3.10;;;;;;;;;;5078199;28;20604;-67
2022/10/07 08:04:05;;;;;;;6.53;3.47;;;;;;;-142.65;77.46;50182.72;5078117;28;20205;-67
2022/10/07 08:06:33;;;;;;;3.27;3.07;;;;;;;-142.65;77.65;50162.81;5078129;28;20247;-67
2022/10/07 08:09:02;;;;;;;8.53;7.63;;;;;;;-142.65;77.63;50176.75;5078999;28;20205;-68
2022/10/07 08:11:31;;;;;;;3.73;3.43;;;;;;;-142.65;77.00;50174.75;5077867;28;20624;-67
2022/10/07 08:13:59;;;;;;;5.13;2.70;;;;;;;-142.65;76.15;50176.75;5078054;28;20679;-67
2022/10/07 08:16:27;;;;;;;3.17;2.97;;;;;;;-142.65;74.97;50170.78;5096525;28;20601;-67
2022/10/07 08:18:57;;;;;;;3.10;2.90;;;;;;;-142.65;75.30;50174.75;5077818;28;20186;-67
2022/10/07 08:21:26;;;;;;;8.07;2.47;;;;;;;-142.65;72.93;50164.81;5095926;28;20714;-67
2022/10/07 08:23:57;;;;;;;5.10;2.70;;;;;;;;;;5078390;28;20280;-67
2022/10/07 08:26:29;;;;;;;2.63;2.17;;;;;;;-142.65;73.35;50174.75;5077784;28;20182;-67
2022/10/07 08:28:59;;;;;;;3.03;2.87;;;;;;;-142.65;72.96;50172.78;5077630;28;20644;-68
2022/10/07 08:31:27;;;;;;;2.97;2.70;;;;;;;;;;5077606;28;20205;-68
2022/10/07 08:33:57;;;;;;;6.60;2.63;;;;;;;-142.65;73.87;50176.75;5095771;28;20188;-67
2022/10/07 08:36:24;;;;;;;3.60;2.53;;;;;;;;;;5096217;28;20185;-67
2022/10/07 08:38:51;;;;;;;3.23;2.67;;;;;;;-142.65;72.97;50170.78;5095891;28;20186;-67
2022/10/07 08:41:44;;;;;;;5.73;2.63;;;;;;;-142.65;71.56;50168.78;5095496;28;20604;-67
2022/10/07 08:44:18;;;;;;;4.43;2.40;;;;;;;-142.65;71.93;50170.78;5096472;28;20517;-67
2022/10/07 08:47:00;;;;;;;7.23;2.43;;;;;;;-142.65;72.20;50172.78;5096240;28;20685;-67
2022/10/07 08:49:38;;;;;;;4.60;2.47;;;;;;;-142.65;71.01;50178.75;5095619;28;20710;-68
2022/10/07 08:52:19;;;;;;;2.00;2.00;;;;;;;;;;5095644;28;20265;-67
2022/10/07 08:54:46;;;;;;;2.33;2.13;;;;;;;-142.65;70.36;50174.75;5095898;28;20185;-67
2022/10/07 08:57:21;;;;;;;2.03;1.93;;;;;;;-142.65;70.72;50180.75;5094568;28;20707;-67
2022/10/07 08:59:57;;;;;;;5.77;2.57;;;;;;;-142.65;70.38;50170.78;5095734;28;20209;-67
2022/10/07 09:02:30;;;;;;;2.70;2.17;;;;;;;-142.65;71.27;50168.78;5095494;28;20327;-67
2022/10/07 09:05:00;;;;;;;12.50;3.10;;;;;;;;;;5095536;28;20197;-67
2022/10/07 09:07:34;;;;;;;10.53;3.13;;;;;;;-142.65;70.36;50162.81;5095399;28;20511;-67
2022/10/07 09:10:22;;;;;;;2.80;2.60;;;;;;;-142.65;69.74;50170.78;5095217;28;20216;-68
2022/10/07 09:13:12;;;;;;;4.07;3.17;;;;;;;-142.65;70.14;50174.75;5095134;28;20196;-67
2022/10/07 09:16:17;;;;;;;8.93;2.50;;;;;;;-142.65;69.91;50168.78;5076789;28;20189;-67
2022/10/07 09:18:52;;;;;;;2.90;2.20;;;;;;;-142.65;70.30;50170.78;5094924;28;20181;-67
2022/10/07 09:21:40;;;;;;;7.90;2.60;;;;;;;-142.65;69.55;50170.78;5095311;28;20520;-68
2022/10/07 09:24:14;;;;;;;5.47;2.83;;;;;;;;;;5095314;28;20185;-67
2022/10/07 09:26:41;;;;;;;9.73;2.63;;;;;;;-142.65;69.04;50168.78;5094960;28;20634;-68
2022/10/07 09:29:08;;;;;;;7.73;2.63;;;;;;;;;;5095067;28;20186;-68
2022/10/07 09:31:34;;;;;;;9.10;3.57;;;;;;;-142.65;68.94;50170.78;5076394;28;20202;-68
2022/10/07 09:34:01;;;;;;;5.83;2.80;;;;;;;;;;5094875;28;20186;-68
2022/10/07 09:36:28;;;;;;;7.27;2.53;;;;;;;-142.65;67.25;50170.78;5094472;28;20670;-68
2022/10/07 09:38:54;;;;;;;6.63;2.57;;;;;;;-142.65;67.77;50168.78;5094390;28;20185;-68
2022/10/07 09:41:31;;;;;;;5.60;2.90;;;;;;;-142.65;67.31;50172.78;5094324;28;20265;-67
2022/10/07 09:43:57;;;;;;;8.50;3.53;;;;;;;-142.65;68.39;50176.75;5094809;28;20658;-67
2022/10/07 09:46:45;;;;;;;8.93;3.87;;;;;;;-142.65;67.88;50164.81;5094280;28;20202;-68
2022/10/07 09:49:27;;;;;;;4.53;2.40;;;;;;;-142.65;67.97;50170.78;5094189;28;20239;-68
2022/10/07 09:52:10;;;;;;;5.80;2.70;;;;;;;-142.65;67.85;50168.78;5094400;28;20285;-68
2022/10/07 09:54:36;;;;;;;2.40;2.30;;;;;;;-142.65;66.05;50170.78;5094381;28;20205;-67
2022/10/07 09:57:03;;;;;;;6.40;3.37;;;;;;;;;;5093992;28;20221;-67
2022/10/07 09:59:32;;;;;;;6.33;2.90;;;;;;;-142.65;66.07;50170.78;5094635;28;20568;-68
2022/10/07 10:02:18;;;;;;;7.33;3.00;;;;;;;-142.65;66.70;50164.81;5094070;28;20192;-68
2022/10/07 10:04:46;;;;;;;5.87;3.10;;;;;;;;;;5094065;28;20227;-67
2022/10/07 10:07:23;;;;;;;2.97;2.60;;;;;;;;;;5094103;28;20186;-67
2022/10/07 10:09:51;;;;;;;9.97;3.03;;;;;;;-142.65;66.25;50170.78;5093816;28;20220;-67
2022/10/07 10:12:20;;;;;;;4.13;2.80;;;;;;;-142.65;65.88;50170.78;5094110;28;20577;-67
2022/10/07 10:14:50;;;;;;;10.97;2.93;;;;;;;-142.65;65.57;50168.78;5093944;28;20189;-68
2022/10/07 10:17:30;;;;;;;6.47;3.40;;;;;;;-142.65;65.49;50172.78;5094054;28;20184;-68
2022/10/07 10:20:22;;;;;;;4.87;3.17;;;;;;;-142.65;65.65;50172.78;5093894;28;20203;-68
2022/10/07 10:22:49;;;;;;;6.00;2.80;;;;;;;;;;5094207;28;20185;-67
2022/10/07 10:28:18;;;;;;;3.37;3.00;;;;;;;-142.65;65.59;50170.78;5093593;28;20188;-68
2022/10/07 10:30:56;;;;;;;4.97;2.57;;;;;;;-142.65;65.35;50170.78;5093457;28;20228;-68
2022/10/07 10:33:30;;;;;;;3.43;2.27;;;;;;;;;;5093906;28;20216;-68
2022/10/07 10:36:05;;;;;;;25.30;3.00;;;;;;;-142.65;64.14;50164.81;5093775;28;20178;-68
2022/10/07 10:38:45;;;;;;;5.53;2.80;;;;;;;-142.65;65.51;50162.81;5093474;28;20187;-68
2022/10/07 10:41:25;;;;;;;4.33;3.10;;;;;;;-142.65;64.85;50170.78;5093918;28;20667;-68
2022/10/07 10:44:18;;;;;;;9.07;3.00;;;;;;;-142.65;66.64;50168.78;5093962;28;20182;-67
2022/10/07 10:46:53;;;;;;;4.50;2.87;;;;;;;;;;5093670;28;20178;-67
2022/10/07 10:49:36;;;;;;;21.13;3.60;;;;;;;-142.65;63.56;50170.78;5093888;28;20651;-68
2022/10/07 10:52:33;;;;;;;10.73;2.47;;;;;;;-142.65;64.21;50174.75;5093495;28;20193;-68
2022/10/07 10:55:18;;;;;;;12.77;2.50;;;;;;;;;;5093842;28;20174;-68
2022/10/07 10:58:24;;;;;;;8.50;2.97;;;;;;;-142.65;63.72;50170.78;5093284;28;20182;-68
2022/10/07 11:00:57;;;;;;;3.33;3.13;;;;;;;-142.65;64.33;50168.78;5093308;28;20258;-68
2022/10/07 11:04:00;;;;;;;3.07;2.27;;;;;;;-142.65;63.32;50172.78;5093272;28;20546;-68
2022/10/07 11:06:29;;;;;;;9.33;2.93;;;;;;;-142.65;65.51;50168.78;5079139;28;20212;-68
2022/10/07 11:08:57;;;;;;;3.80;2.70;;;;;;;;;;5093338;28;20284;-68
2022/10/07 11:11:23;;;;;;;12.20;2.83;;;;;;;;;;5093316;28;20698;-67
2022/10/07 11:14:02;;;;;;;7.27;2.47;;;;;;;-142.65;63.53;50168.78;5074925;28;20189;-67
2022/10/07 11:16:35;;;;;;;4.00;2.43;;;;;;;-142.65;61.08;50170.78;5093345;28;20188;-67
2022/10/07 11:19:15;;;;;;;3.90;2.43;;;;;;;-142.65;61.87;50178.75;5093198;28;20255;-68
2022/10/07 11:21:48;;;;;;;9.73;1.60;;;;;;;-142.65;62.10;50170.78;5095790;28;20182;-67
2022/10/07 11:24:17;;;;;;;5.03;2.60;;;;;;;-142.65;61.97;50168.78;5097350;28;20188;-67
2022/10/07 11:26:56;;;;;;;10.63;3.17;;;;;;;-142.65;63.82;50168.78;5097052;28;20212;-67
2022/10/07 11:29:41;;;;;;;2.17;1.97;;;;;;;;;;5097178;28;20201;-68
2022/10/07 11:32:13;;;;;;;4.47;2.53;;;;;;;-142.65;63.33;50162.81;5097118;28;20198;-68
2022/10/07 11:34:39;;;;;;;4.60;2.40;;;;;;;;;;5097050;28;20190;-67
2022/10/07 11:37:18;;;;;;;9.60;2.77;;;;;;;-142.65;62.53;50172.78;5096784;28;20192;-67
2022/10/07 11:39:44;;;;;;;3.57;2.40;;;;;;;;;;5097241;28;20202;-68
2022/10/07 11:42:39;;;;;;;10.17;2.37;;;;;;;-142.65;62.06;50162.81;5096642;28;20628;-68
2022/10/07 11:45:09;;;;;;;4.60;2.30;;;;;;;-142.65;63.63;50172.78;5096706;28;20178;-68
2022/10/07 11:47:42;;;;;;;9.10;2.47;;;;;;;;;;5096946;28;20243;-67
2022/10/07 11:50:22;;;;;;;2.50;2.40;;;;;;;-142.65;63.20;50172.78;5096667;28;20220;-68
2022/10/07 11:52:51;;;;;;;4.23;2.70;;;;;;;;;;5097066;28;20227;-68
2022/10/07 11:55:23;;;;;;;8.77;3.07;;;;;;;;;;5096587;28;20184;-68
2022/10/07 11:57:54;;;;;;;11.20;2.13;;;;;;;;;;5096792;28;20632;-67
2022/10/07 12:00:43;;;;;;;6.10;2.10;;;;;;;-142.65;65.52;50172.78;5096852;28;20675;-68
2022/10/07 12:03:31;;;;;;;5.13;2.10;;;;;;;-142.65;63.04;50164.81;5096660;28;20256;-68
2022/10/07 12:06:09;;;;;;;2.17;2.07;;;;;;;-142.65;62.38;50170.78;5096276;28;20189;-67
2022/10/07 12:08:37;;;;;;;15.53;3.10;;;;;;;;;;5096836;28;20624;-67